Aviation Digital Data Service (ADDS)

Output produced by METARs form (1230 UTC 17 April 2014)
found at http://aviationweather.gov/adds/metars/
 
KJAX 171120Z 1712/1812 05013G20KT P6SM OVC015 
     FM171600 06015G25KT P6SM SCT020 BKN250 
     TEMPO 1716/1718 BKN020 
     FM172100 06014G24KT P6SM BKN030 
     FM180100 06010KT P6SM BKN025 
     FM180800 06009KT P6SM VCSH OVC020